Time;durP1;ratioP1;P1;durP2;ratioP2;P2;SDS_P1;SDS_P2;PMS_P1;PMS_P2;Temp;Humidity;BMP_temperature;BMP_pressure;BME280_temperature;BME280_humidity;BME280_pressure;Samples;Min_cycle;Max_cycle;Signal;HPM_P1;HPM_P2
2023/01/20 00:01:25;;;;;;;1.00;1.00;;;;;;;0.94;100.00;99251.69;5104584;28;20101;-79
2023/01/20 00:03:53;;;;;;;1.00;1.00;;;;;;;0.97;100.00;99253.97;5099686;28;20101;-80
2023/01/20 00:06:21;;;;;;;0.80;0.80;;;;;;;0.98;100.00;99249.47;5100008;28;20548;-80
2023/01/20 00:08:52;;;;;;;0.80;0.80;;;;;;;1.02;100.00;99248.13;5083157;28;20040;-80
2023/01/20 00:11:19;;;;;;;0.90;0.90;;;;;;;1.00;100.00;99271.41;5124340;27;20062;-79
2023/01/20 00:13:47;;;;;;;0.73;0.73;;;;;;;1.01;100.00;99257.94;5127164;27;20060;-78
2023/01/20 00:16:14;;;;;;;0.82;0.82;;;;;;;1.03;100.00;99277.19;5110874;28;20502;-79
2023/01/20 00:18:43;;;;;;;0.73;0.73;;;;;;;1.04;100.00;99256.78;5110988;28;20044;-78
2023/01/20 00:21:13;;;;;;;0.90;0.90;;;;;;;1.05;100.00;99258.41;5095992;28;20147;-79
2023/01/20 00:23:40;;;;;;;0.90;0.90;;;;;;;1.04;100.00;99249.63;5072455;28;20040;-79
2023/01/20 00:26:09;;;;;;;0.80;0.80;;;;;;;1.07;100.00;99257.22;5090626;28;20047;-79
2023/01/20 00:28:36;;;;;;;0.90;0.90;;;;;;;1.07;100.00;99262.53;5090869;28;20058;-78
2023/01/20 00:31:27;;;;;;;1.00;1.00;;;;;;;1.09;100.00;99249.09;5056112;28;20064;-78
2023/01/20 00:33:56;;;;;;;0.90;0.90;;;;;;;1.11;100.00;99257.69;5090609;28;20465;-78
2023/01/20 00:36:25;;;;;;;0.90;0.90;;;;;;;1.10;100.00;99261.38;5100155;28;20058;-79
2023/01/20 00:38:54;;;;;;;0.85;0.85;;;;;;;1.12;100.00;99262.03;5089409;28;20055;-79
2023/01/20 00:41:22;;;;;;;0.90;0.90;;;;;;;1.09;100.00;99259.72;5092870;28;20071;-78
2023/01/20 00:43:49;;;;;;;0.98;0.98;;;;;;;1.10;100.00;99257.88;5110538;28;20413;-80
2023/01/20 00:46:16;;;;;;;0.90;0.90;;;;;;;1.11;100.00;99265.66;5092976;28;20048;-79
2023/01/20 00:48:46;;;;;;;0.90;0.90;;;;;;;1.12;100.00;99251.38;5103273;28;20135;-80
2023/01/20 00:51:14;;;;;;;0.90;0.90;;;;;;;1.11;100.00;99260.34;5072600;28;20597;-79
2023/01/20 00:53:41;;;;;;;0.88;0.88;;;;;;;1.14;100.00;99260.03;5090622;28;20044;-78
2023/01/20 00:56:08;;;;;;;0.98;0.98;;;;;;;1.08;100.00;99255.38;5102401;28;20517;-78
2023/01/20 00:58:35;;;;;;;0.90;0.90;;;;;;;1.15;100.00;99261.66;5110683;28;20047;-78
2023/01/20 01:01:03;;;;;;;0.80;0.80;;;;;;;1.11;100.00;99257.69;5110478;28;20078;-78
2023/01/20 01:03:30;;;;;;;0.80;0.80;;;;;;;1.18;100.00;99265.78;5110574;28;20571;-78
2023/01/20 01:06:11;;;;;;;1.00;1.00;;;;;;;1.16;100.00;99265.97;5092848;28;20399;-78
2023/01/20 01:08:41;;;;;;;0.90;0.90;;;;;;;1.13;100.00;99258.34;5113256;28;20370;-78
2023/01/20 01:11:09;;;;;;;0.75;0.75;;;;;;;1.14;100.00;99262.69;5130947;27;20047;-79
2023/01/20 01:13:37;;;;;;;0.90;0.90;;;;;;;1.17;100.00;99259.66;5129071;28;20154;-79
2023/01/20 01:16:13;;;;;;;0.80;0.80;;;;;;;1.16;100.00;99260.63;5110470;28;20478;-79
2023/01/20 01:18:41;;;;;;;0.70;0.70;;;;;;;1.11;100.00;99263.00;5110916;28;20048;-78
2023/01/20 01:21:09;;;;;;;1.00;1.00;;;;;;;1.15;100.00;99269.63;5110336;28;20051;-79
2023/01/20 01:23:36;;;;;;;0.90;0.90;;;;;;;1.17;100.00;99258.84;5110273;28;20071;-79
2023/01/20 01:26:03;;;;;;;0.90;0.90;;;;;;;1.17;100.00;99258.84;5091911;28;20138;-79
2023/01/20 01:28:30;;;;;;;0.90;0.90;;;;;;;1.19;100.00;99256.81;5092493;28;20048;-80
2023/01/20 01:31:02;;;;;;;0.80;0.80;;;;;;;1.17;100.00;99256.19;5092128;28;20558;-79
2023/01/20 01:33:29;;;;;;;1.00;1.00;;;;;;;1.18;100.00;99265.78;5110489;28;20071;-80
2023/01/20 01:35:58;;;;;;;0.80;0.80;;;;;;;1.19;100.00;99267.44;5091987;28;20043;-80
2023/01/20 01:38:28;;;;;;;0.90;0.90;;;;;;;1.19;100.00;99256.81;5110414;28;20499;-79
2023/01/20 01:40:55;;;;;;;0.80;0.80;;;;;;;1.19;100.00;99252.34;5110150;28;20056;-80
2023/01/20 01:43:29;;;;;;;0.90;0.90;;;;;;;1.17;100.00;99259.66;5091865;28;20059;-80
2023/01/20 01:45:56;;;;;;;0.80;0.80;;;;;;;1.16;100.00;99284.56;5110467;28;20105;-79
2023/01/20 01:48:28;;;;;;;0.90;0.90;;;;;;;1.16;100.00;99257.16;5110113;28;20039;-80
2023/01/20 01:51:06;;;;;;;0.88;0.88;;;;;;;1.16;100.00;99251.84;5109821;28;20058;-78
2023/01/20 01:53:39;;;;;;;0.80;0.80;;;;;;;1.12;100.00;99248.72;5092365;28;20044;-79
2023/01/20 01:56:06;;;;;;;0.90;0.90;;;;;;;1.15;100.00;99266.16;5092016;28;20184;-79
2023/01/20 01:58:35;;;;;;;0.90;0.90;;;;;;;1.13;100.00;99266.31;5110222;28;20047;-79
2023/01/20 02:01:03;;;;;;;0.80;0.80;;;;;;;1.14;100.00;99281.28;5092910;28;20055;-79
2023/01/20 02:03:43;;;;;;;0.90;0.90;;;;;;;1.15;100.00;99264.31;5125457;27;20062;-79
2023/01/20 02:06:11;;;;;;;1.00;1.00;;;;;;;1.16;100.00;99263.31;5134862;27;20134;-79
2023/01/20 02:08:38;;;;;;;0.90;0.90;;;;;;;1.18;100.00;99261.28;5134599;27;20497;-81
2023/01/20 02:11:06;;;;;;;0.80;0.80;;;;;;;1.17;100.00;99254.34;5134621;27;20444;-79
2023/01/20 02:13:33;;;;;;;0.90;0.90;;;;;;;1.21;100.00;99254.78;5114287;27;20063;-79
2023/01/20 02:16:08;;;;;;;0.90;0.90;;;;;;;1.21;100.00;99255.63;5113580;28;20051;-80
2023/01/20 02:18:38;;;;;;;0.98;0.98;;;;;;;1.16;100.00;99252.66;5113679;28;20509;-79
2023/01/20 02:21:08;;;;;;;0.80;0.80;;;;;;;1.18;100.00;99253.31;5095519;28;20055;-79
2023/01/20 02:23:41;;;;;;;0.90;0.90;;;;;;;1.19;100.00;99276.25;5113324;28;20630;-78
2023/01/20 02:26:13;;;;;;;0.82;0.82;;;;;;;1.18;99.94;99260.47;5112487;28;20677;-79
2023/01/20 02:29:02;;;;;;;0.80;0.80;;;;;;;1.17;99.73;99266.81;5113081;28;20138;-79
2023/01/20 02:31:59;;;;;;;0.90;0.90;;;;;;;1.16;99.69;99260.63;5113463;28;20674;-78
2023/01/20 02:35:00;;;;;;;0.85;0.85;;;;;;;1.16;99.78;99265.13;5095200;28;20134;-79
2023/01/20 02:37:57;;;;;;;0.90;0.90;;;;;;;1.16;99.71;99276.59;5080044;28;20055;-78
2023/01/20 02:40:33;;;;;;;0.80;0.80;;;;;;;1.18;99.27;99261.28;5113556;28;20055;-78
2023/01/20 02:43:19;;;;;;;0.90;0.90;;;;;;;1.18;99.32;99269.28;5112857;28;20048;-79
2023/01/20 02:45:51;;;;;;;0.90;0.90;;;;;;;1.16;99.35;99279.25;5113227;28;20043;-79
2023/01/20 02:48:34;;;;;;;0.90;0.90;;;;;;;1.21;99.20;99257.44;5113215;28;20092;-79
2023/01/20 02:51:11;;;;;;;0.98;0.98;;;;;;;1.18;98.90;99277.25;5094955;28;20047;-80
2023/01/20 02:53:48;;;;;;;0.98;0.98;;;;;;;1.20;98.71;99282.41;5079633;28;20083;-79
2023/01/20 02:56:18;;;;;;;0.80;0.80;;;;;;;1.19;98.72;99278.06;5113018;28;20048;-78
2023/01/20 02:58:51;;;;;;;0.90;0.90;;;;;;;1.21;98.37;99279.53;5115534;27;20055;-78
2023/01/20 03:01:23;;;;;;;0.90;0.90;;;;;;;1.25;98.15;99298.66;5093360;28;20047;-79
2023/01/20 03:03:53;;;;;;;0.90;0.90;;;;;;;1.27;98.06;99291.31;5094507;28;20048;-80
2023/01/20 03:06:23;;;;;;;0.90;0.90;;;;;;;1.27;97.62;99292.16;5094552;28;20485;-79
2023/01/20 03:08:55;;;;;;;0.90;0.90;;;;;;;1.28;97.60;99303.59;5077237;28;20043;-80
2023/01/20 03:11:22;;;;;;;0.82;0.82;;;;;;;1.25;97.65;99310.09;5083767;28;20047;-78
2023/01/20 03:13:58;;;;;;;0.80;0.80;;;;;;;1.27;97.38;99304.63;5083729;28;20073;-79
2023/01/20 03:16:28;;;;;;;0.90;0.90;;;;;;;1.30;97.33;99305.09;5083780;28;20052;-78
2023/01/20 03:18:57;;;;;;;0.80;0.80;;;;;;;1.34;96.62;99291.44;5094858;28;20048;-79
2023/01/20 03:21:24;;;;;;;0.98;0.98;;;;;;;1.33;96.32;99311.88;5092058;28;20514;-80
2023/01/20 03:23:59;;;;;;;0.90;0.90;;;;;;;1.27;96.32;99307.28;5101729;28;20079;-79
2023/01/20 03:26:27;;;;;;;0.90;0.90;;;;;;;1.32;96.21;99325.34;5107280;28;20054;-78
2023/01/20 03:28:54;;;;;;;0.90;0.90;;;;;;;1.33;96.22;99313.72;5101041;28;20086;-79
2023/01/20 03:31:45;;;;;;;0.90;0.90;;;;;;;1.32;96.31;99312.91;5099696;28;20423;-78
2023/01/20 03:34:18;;;;;;;0.90;0.90;;;;;;;1.29;96.26;99327.38;5085496;28;20055;-78
2023/01/20 03:36:45;;;;;;;0.90;0.90;;;;;;;1.34;96.06;99307.38;5106587;28;20663;-77
2023/01/20 03:39:13;;;;;;;0.90;0.90;;;;;;;1.36;95.64;99316.84;5111986;28;20047;-79
2023/01/20 03:41:51;;;;;;;1.00;1.00;;;;;;;1.34;95.44;99333.97;5093985;28;20040;-78
2023/01/20 03:44:40;;;;;;;0.90;0.90;;;;;;;1.35;95.55;99312.53;5103791;28;20051;-77
2023/01/20 03:47:26;;;;;;;0.90;0.90;;;;;;;1.34;95.33;99323.34;5090347;28;20071;-77
2023/01/20 03:50:13;;;;;;;1.00;1.00;;;;;;;1.34;95.49;99328.66;5107599;28;20048;-81
2023/01/20 03:53:24;;;;;;;0.80;0.80;;;;;;;1.35;95.29;99335.66;5090132;28;20082;-80
2023/01/20 03:56:22;;;;;;;0.80;0.80;;;;;;;1.35;94.89;99319.69;5004879;28;20053;-80
2023/01/20 03:58:51;;;;;;;0.82;0.82;;;;;;;1.33;94.76;99329.66;5014255;28;20144;-80
2023/01/20 04:01:20;;;;;;;0.90;0.90;;;;;;;1.32;94.55;99330.66;5006794;28;20057;-81
2023/01/20 04:03:50;;;;;;;0.85;0.85;;;;;;;1.33;94.54;99333.16;5008569;28;20127;-83
2023/01/20 04:06:24;;;;;;;0.90;0.90;;;;;;;1.32;94.66;99326.19;5008514;28;20069;-83
2023/01/20 04:08:54;;;;;;;0.90;0.90;;;;;;;1.35;94.52;99331.16;4992209;28;20049;-83
2023/01/20 04:11:23;;;;;;;0.90;0.90;;;;;;;1.34;94.41;99321.50;4992787;28;20046;-83
2023/01/20 04:13:50;;;;;;;0.90;0.90;;;;;;;1.33;94.41;99338.47;4992412;28;20050;-83
2023/01/20 04:16:20;;;;;;;0.90;0.90;;;;;;;1.34;94.23;99339.28;4976822;28;20046;-83
2023/01/20 04:18:49;;;;;;;0.90;0.90;;;;;;;1.33;94.42;99341.13;4992594;28;20064;-83
2023/01/20 04:21:33;;;;;;;0.90;0.90;;;;;;;1.33;94.05;99322.50;5010492;28;20192;-82
2023/01/20 04:24:05;;;;;;;0.85;0.85;;;;;;;1.34;94.01;99345.44;5012414;28;20057;-83
2023/01/20 04:26:35;;;;;;;;;;;;;;;1.33;93.79;99332.34;5009268;28;20054;-82
2023/01/20 04:29:07;;;;;;;0.90;0.90;;;;;;;1.34;93.84;99336.63;4991713;28;19925;-83
2023/01/20 04:31:37;;;;;;;0.90;0.90;;;;;;;1.35;93.80;99333.81;5047642;28;20090;-83
2023/01/20 04:34:16;;;;;;;1.00;1.00;;;;;;;1.35;93.95;99343.63;5080220;28;20361;-83
2023/01/20 04:36:44;;;;;;;0.80;0.80;;;;;;;1.32;93.78;99346.63;5048432;28;20056;-87
2023/01/20 04:39:14;;;;;;;0.90;0.90;;;;;;;1.32;93.71;99325.34;5050293;28;20041;-85
2023/01/20 04:41:44;;;;;;;0.95;0.95;;;;;;;1.33;93.65;99343.78;5066807;28;20131;-81
2023/01/20 04:44:11;;;;;;;0.90;0.90;;;;;;;1.34;93.68;99334.78;5078703;28;20040;-82
2023/01/20 04:46:44;;;;;;;0.82;0.82;;;;;;;1.35;93.79;99343.63;5077479;28;20055;-82
2023/01/20 04:49:11;;;;;;;0.98;0.98;;;;;;;1.32;93.80;99342.16;5069341;28;20053;-82
2023/01/20 04:51:38;;;;;;;0.80;0.80;;;;;;;1.36;93.73;99339.94;5051968;28;20148;-81
2023/01/20 04:54:06;;;;;;;0.90;0.90;;;;;;;1.34;93.60;99350.75;5064717;28;20525;-84
2023/01/20 04:56:33;;;;;;;0.95;0.95;;;;;;;1.38;93.33;99338.75;5065387;28;20144;-83
2023/01/20 04:59:00;;;;;;;0.90;0.90;;;;;;;1.39;93.41;99345.72;4714762;28;9999905;-83
2023/01/20 05:01:27;;;;;;;0.85;0.85;;;;;;;1.39;93.17;99350.22;5064987;28;20471;-83
2023/01/20 05:03:54;;;;;;;0.90;0.90;;;;;;;1.41;93.01;99350.88;5066944;28;20076;-82
2023/01/20 05:06:22;;;;;;;0.82;0.82;;;;;;;1.42;93.15;99363.16;5065003;28;20154;-82
2023/01/20 05:08:50;;;;;;;0.80;0.80;;;;;;;1.42;92.86;99358.69;5058026;28;20152;-83
2023/01/20 05:11:17;;;;;;;0.70;0.70;;;;;;;1.42;92.97;99358.69;5025189;28;20083;-83
2023/01/20 05:13:45;;;;;;;0.82;0.82;;;;;;;1.44;92.73;99361.16;5080938;28;20053;-81
2023/01/20 05:16:12;;;;;;;0.80;0.80;;;;;;;1.48;92.69;99370.44;5079697;28;20086;-81
2023/01/20 05:18:39;;;;;;;1.00;1.00;;;;;;;1.48;92.52;99357.16;5076919;28;20050;-81
2023/01/20 05:21:07;;;;;;;0.90;0.90;;;;;;;1.49;92.17;99366.78;5085528;28;20359;-84
2023/01/20 05:23:34;;;;;;;0.88;0.88;;;;;;;1.47;92.25;99368.81;5090041;28;20189;-80
2023/01/20 05:26:01;;;;;;;0.90;0.90;;;;;;;1.43;92.33;99370.16;5088256;28;20139;-81
2023/01/20 05:28:31;;;;;;;0.90;0.90;;;;;;;1.44;92.39;99374.47;5088448;28;20084;-82
2023/01/20 05:30:58;;;;;;;1.00;1.00;;;;;;;1.46;92.22;99367.13;5089357;28;20143;-82
2023/01/20 05:33:25;;;;;;;0.90;0.90;;;;;;;1.44;92.04;99369.13;5089513;28;20089;-81
2023/01/20 05:35:52;;;;;;;0.90;0.90;;;;;;;1.42;92.19;99365.81;5090861;28;20511;-83
2023/01/20 05:38:22;;;;;;;1.00;1.00;;;;;;;1.43;92.20;99362.19;5093746;28;20048;-82
2023/01/20 05:40:50;;;;;;;1.00;1.00;;;;;;;1.44;92.01;99383.28;5093848;28;20048;-81
2023/01/20 05:43:21;;;;;;;0.90;0.90;;;;;;;1.42;91.91;99368.47;5093756;28;20044;-82
2023/01/20 05:45:48;;;;;;;0.88;0.88;;;;;;;1.44;91.88;99377.13;5094123;28;20063;-83
2023/01/20 05:48:15;;;;;;;0.90;0.90;;;;;;;1.44;91.75;99371.81;5092707;28;20052;-83
2023/01/20 05:50:42;;;;;;;0.90;0.90;;;;;;;1.43;91.61;99373.63;5093669;28;20055;-82
2023/01/20 05:53:09;;;;;;;0.90;0.90;;;;;;;1.44;91.58;99372.66;5093120;28;20383;-81
2023/01/20 05:55:39;;;;;;;0.93;0.93;;;;;;;1.43;91.43;99378.13;5093579;28;20578;-81
2023/01/20 05:58:06;;;;;;;1.00;1.00;;;;;;;1.45;91.55;99376.13;5093379;28;20047;-81
2023/01/20 06:00:34;;;;;;;0.90;0.90;;;;;;;1.44;91.28;99382.44;5093499;28;20048;-82
2023/01/20 06:03:01;;;;;;;0.80;0.80;;;;;;;1.39;91.44;99379.47;5093264;28;20564;-82
2023/01/20 06:05:28;;;;;;;0.90;0.90;;;;;;;1.44;91.41;99382.44;5058596;28;20421;-82
2023/01/20 06:07:56;;;;;;;0.80;0.80;;;;;;;1.44;91.67;99385.09;5092999;28;20048;-82
2023/01/20 06:10:26;;;;;;;0.90;0.90;;;;;;;1.46;91.40;99397.22;5093304;28;20462;-82
2023/01/20 06:12:54;;;;;;;0.90;0.90;;;;;;;1.43;91.63;99402.06;5105255;28;20083;-82
2023/01/20 06:15:24;;;;;;;0.90;0.90;;;;;;;1.42;91.46;99381.78;5113669;28;20071;-81
2023/01/20 06:17:51;;;;;;;0.90;0.90;;;;;;;1.44;91.51;99393.06;5114220;28;20047;-82
2023/01/20 06:20:18;;;;;;;1.00;1.00;;;;;;;1.44;91.37;99388.63;5095593;28;20051;-82
2023/01/20 06:22:45;;;;;;;0.90;0.90;;;;;;;1.43;91.53;99381.63;5113601;28;20071;-83
2023/01/20 06:25:13;;;;;;;0.90;0.90;;;;;;;1.44;91.49;99391.28;5095147;28;20048;-80
2023/01/20 06:27:40;;;;;;;0.90;0.90;;;;;;;1.45;91.60;99389.44;5094804;28;20044;-81
2023/01/20 06:30:08;;;;;;;0.90;0.90;;;;;;;1.49;91.39;99398.69;5095077;28;20154;-82
2023/01/20 06:32:36;;;;;;;0.90;0.90;;;;;;;1.52;91.32;99396.53;5112905;28;20151;-81
2023/01/20 06:35:04;;;;;;;0.90;0.90;;;;;;;1.57;90.65;99395.16;5113004;28;20135;-82
2023/01/20 06:37:31;;;;;;;0.90;0.90;;;;;;;1.63;90.50;99405.09;5113555;28;20176;-81
2023/01/20 06:39:58;;;;;;;0.82;0.82;;;;;;;1.60;90.43;99398.31;5112938;28;20055;-81
2023/01/20 06:42:25;;;;;;;0.82;0.82;;;;;;;1.60;90.47;99411.59;5113316;28;20418;-83
2023/01/20 06:44:53;;;;;;;0.88;0.88;;;;;;;1.61;90.31;99415.09;5113036;28;20047;-82
2023/01/20 06:47:20;;;;;;;0.90;0.90;;;;;;;1.63;90.26;99416.56;5113488;27;20055;-81
2023/01/20 06:49:50;;;;;;;0.80;0.80;;;;;;;1.64;90.24;99431.53;5099047;28;20047;-83
2023/01/20 06:52:17;;;;;;;0.80;0.80;;;;;;;1.64;90.27;99442.16;5112911;28;20051;-83
2023/01/20 06:54:49;;;;;;;1.00;1.00;;;;;;;1.62;90.17;99449.53;5112979;28;20459;-82
2023/01/20 06:57:16;;;;;;;0.80;0.80;;;;;;;1.59;90.20;99460.47;5078374;28;20059;-82
2023/01/20 06:59:45;;;;;;;0.75;0.75;;;;;;;1.59;90.28;99467.66;5094735;28;20454;-82
2023/01/20 07:02:13;;;;;;;0.80;0.80;;;;;;;1.52;90.07;99462.22;5112875;28;20086;-81
2023/01/20 07:04:41;;;;;;;0.90;0.90;;;;;;;1.63;89.87;99461.81;5112860;28;20046;-82
2023/01/20 07:07:11;;;;;;;0.90;0.90;;;;;;;1.64;89.90;99463.44;5096255;28;20156;-81
2023/01/20 07:09:38;;;;;;;0.80;0.80;;;;;;;1.64;89.86;99463.44;5095331;28;20414;-84
2023/01/20 07:12:05;;;;;;;0.90;0.90;;;;;;;1.69;89.66;99469.06;5085799;28;20053;-83
2023/01/20 07:14:33;;;;;;;0.82;0.82;;;;;;;1.72;89.47;99463.41;5063411;28;20051;-83
2023/01/20 07:17:00;;;;;;;0.90;0.90;;;;;;;1.72;89.16;99468.75;5054190;28;20079;-81
2023/01/20 07:19:27;;;;;;;0.80;0.80;;;;;;;1.73;89.00;99470.38;5053187;28;20491;-83
2023/01/20 07:21:53;;;;;;;0.80;0.80;;;;;;;1.78;89.05;99466.38;5051660;28;20048;-83
2023/01/20 07:24:25;;;;;;;0.90;0.90;;;;;;;1.82;88.69;99475.66;5064044;28;20590;-82
2023/01/20 07:26:53;;;;;;;0.88;0.88;;;;;;;1.80;88.77;99475.00;5071942;28;20064;-82
2023/01/20 07:29:20;;;;;;;0.93;0.93;;;;;;;1.81;88.26;99479.31;5072002;28;20055;-84
2023/01/20 07:31:47;;;;;;;0.90;0.90;;;;;;;1.80;88.41;99475.84;5071785;28;20059;-83
2023/01/20 07:34:14;;;;;;;0.82;0.82;;;;;;;1.80;88.02;99498.94;5071518;28;20156;-83
2023/01/20 07:36:41;;;;;;;0.90;0.90;;;;;;;1.81;87.91;99479.31;5062223;28;20119;-83
2023/01/20 07:39:10;;;;;;;0.90;0.90;;;;;;;1.82;87.59;99489.78;5050726;28;20399;-83
2023/01/20 07:41:36;;;;;;;0.90;0.90;;;;;;;1.84;87.46;99490.44;5050983;28;20121;-83
2023/01/20 07:44:28;;;;;;;0.85;0.85;;;;;;;1.87;87.49;99492.75;5056983;28;20546;-82
2023/01/20 07:46:57;;;;;;;0.80;0.80;;;;;;;1.87;87.38;99481.28;5070463;28;20058;-82
2023/01/20 07:49:24;;;;;;;1.00;1.00;;;;;;;1.86;87.47;99495.59;5057425;28;20053;-82
2023/01/20 07:51:51;;;;;;;0.90;0.90;;;;;;;1.84;87.28;99495.75;5051231;28;20063;-81
2023/01/20 07:54:19;;;;;;;0.93;0.93;;;;;;;1.87;87.12;99489.25;5051484;28;20052;-81
2023/01/20 07:56:46;;;;;;;0.88;0.88;;;;;;;1.89;86.92;99477.44;5051284;28;20479;-83
2023/01/20 07:59:13;;;;;;;0.90;0.90;;;;;;;1.95;86.85;99481.25;5050281;28;20072;-83
2023/01/20 08:01:46;;;;;;;1.00;1.00;;;;;;;1.95;86.60;99470.59;5051221;28;20049;-83
2023/01/20 08:04:19;;;;;;;0.90;0.90;;;;;;;1.97;86.48;99484.53;5069823;28;20040;-83
2023/01/20 08:06:48;;;;;;;0.90;0.90;;;;;;;1.95;86.57;99484.72;5070520;28;20605;-83
2023/01/20 08:09:16;;;;;;;0.90;0.90;;;;;;;1.95;86.30;99494.56;5071765;28;20127;-83
2023/01/20 08:11:43;;;;;;;0.80;0.80;;;;;;;1.94;86.24;99499.03;5076157;28;20190;-82
2023/01/20 08:14:10;;;;;;;1.00;1.00;;;;;;;1.97;86.20;99495.19;5111900;28;20054;-83
2023/01/20 08:16:42;;;;;;;0.90;0.90;;;;;;;1.94;86.17;99501.69;5111878;28;20052;-82
2023/01/20 08:19:09;;;;;;;0.90;0.90;;;;;;;1.95;86.20;99491.88;5111011;28;20501;-82
2023/01/20 08:21:36;;;;;;;0.80;0.80;;;;;;;1.96;86.08;99493.53;5111280;28;20134;-82
2023/01/20 08:24:05;;;;;;;0.90;0.90;;;;;;;1.95;86.28;99497.22;5111104;28;20512;-83
2023/01/20 08:26:57;;;;;;;0.90;0.90;;;;;;;2.01;86.02;99506.31;5110969;28;20051;-83
2023/01/20 08:29:25;;;;;;;0.85;0.85;;;;;;;2.00;86.08;99499.31;5111478;28;20081;-83
2023/01/20 08:31:52;;;;;;;0.90;0.90;;;;;;;2.00;85.90;99476.22;5075934;28;20058;-82
2023/01/20 08:34:25;;;;;;;0.95;0.95;;;;;;;2.04;85.66;99485.47;5111417;28;20050;-82
2023/01/20 08:36:53;;;;;;;0.90;0.90;;;;;;;2.04;85.32;99492.66;5110788;28;20055;-82
2023/01/20 08:39:20;;;;;;;0.90;0.90;;;;;;;2.03;85.34;99488.34;5092582;28;20078;-82
2023/01/20 08:41:47;;;;;;;0.90;0.90;;;;;;;2.05;85.51;99491.63;5128355;27;20142;-83
2023/01/20 08:44:17;;;;;;;0.82;0.82;;;;;;;2.07;85.23;99479.78;5131154;27;20054;-84
2023/01/20 08:46:44;;;;;;;0.73;0.73;;;;;;;2.11;85.16;99498.94;5131037;27;20054;-83
2023/01/20 08:49:15;;;;;;;0.88;0.88;;;;;;;2.16;84.92;99508.03;5131005;27;20055;-83
2023/01/20 08:51:43;;;;;;;0.90;0.90;;;;;;;2.19;84.62;99504.19;5115874;27;20458;-82
2023/01/20 08:54:11;;;;;;;0.80;0.80;;;;;;;2.21;84.32;99490.69;5071965;28;20055;-82
2023/01/20 08:56:38;;;;;;;0.90;0.90;;;;;;;2.23;84.19;99516.16;5090281;28;20051;-82
2023/01/20 08:59:05;;;;;;;0.80;0.80;;;;;;;2.23;84.15;99505.50;5089863;28;20058;-82
2023/01/20 09:01:35;;;;;;;0.82;0.82;;;;;;;2.24;84.20;99501.00;5089833;28;20054;-83
2023/01/20 09:04:04;;;;;;;0.90;0.90;;;;;;;2.25;84.02;99508.78;5074666;28;20440;-83
2023/01/20 09:06:44;;;;;;;0.90;0.90;;;;;;;2.30;83.75;99510.91;5104196;28;20054;-83
2023/01/20 09:09:13;;;;;;;0.82;0.82;;;;;;;2.29;83.86;99510.09;5108783;28;20052;-82
2023/01/20 09:11:43;;;;;;;0.90;0.90;;;;;;;2.29;83.41;99512.75;5089880;28;20043;-82
2023/01/20 09:14:10;;;;;;;0.90;0.90;;;;;;;2.27;83.65;99537.91;5090163;28;20149;-81
2023/01/20 09:16:41;;;;;;;0.90;0.90;;;;;;;2.25;83.50;99524.75;5089739;28;20052;-81
2023/01/20 09:19:08;;;;;;;0.90;0.90;;;;;;;2.28;83.53;99523.56;5037352;28;20139;-82
2023/01/20 09:21:36;;;;;;;0.90;0.90;;;;;;;2.29;83.40;99515.41;5060934;28;20055;-82
2023/01/20 09:24:04;;;;;;;0.95;0.95;;;;;;;2.31;83.47;99533.91;5087078;28;20048;-84
2023/01/20 09:26:37;;;;;;;0.90;0.90;;;;;;;2.31;83.36;99534.72;5107768;28;20051;-82
2023/01/20 09:29:09;;;;;;;0.80;0.80;;;;;;;2.35;83.30;99536.00;5115598;28;20047;-81
2023/01/20 09:31:38;;;;;;;0.90;0.90;;;;;;;2.33;82.98;99542.50;5112885;28;20047;-82
2023/01/20 09:34:06;;;;;;;1.00;1.00;;;;;;;2.36;82.97;99556.31;4750327;28;9999686;-81
2023/01/20 09:36:33;;;;;;;0.90;0.90;;;;;;;2.38;82.93;99542.81;5101190;28;20550;-82
2023/01/20 09:44:48;;;;;;;0.90;0.90;;;;;;;2.39;82.44;99557.81;5090605;28;20051;-84
2023/01/20 09:47:28;;;;;;;0.98;0.98;;;;;;;2.42;82.55;99552.13;5106921;28;20055;-82
2023/01/20 09:53:34;;;;;;;0.93;0.93;;;;;;;2.50;82.04;99529.91;5099779;28;20115;-82
2023/01/20 09:56:15;;;;;;;0.90;0.90;;;;;;;2.48;82.21;99559.41;5074847;28;20569;-81
2023/01/20 09:59:04;;;;;;;0.80;0.80;;;;;;;2.52;82.19;99562.53;5112551;28;20514;-80
2023/01/20 10:01:42;;;;;;;0.80;0.80;;;;;;;2.52;82.05;99550.03;5105273;28;20046;-83
2023/01/20 10:04:20;;;;;;;0.90;0.90;;;;;;;2.54;81.77;99555.19;5106082;28;20138;-83
2023/01/20 10:07:00;;;;;;;0.90;0.90;;;;;;;2.59;81.74;99569.63;5092324;28;20135;-82
2023/01/20 10:09:55;;;;;;;0.88;0.88;;;;;;;2.65;81.56;99565.41;5088521;28;21799;-83
2023/01/20 10:12:51;;;;;;;0.90;0.90;;;;;;;2.65;81.48;99554.75;5022374;28;20073;-83
2023/01/20 10:15:21;;;;;;;1.00;1.00;;;;;;;2.60;81.15;99554.47;5006478;28;20518;-83
2023/01/20 10:18:14;;;;;;;0.90;0.90;;;;;;;2.63;81.31;99562.09;5022613;28;20053;-83
2023/01/20 10:21:02;;;;;;;0.88;0.88;;;;;;;2.74;81.25;99566.19;5022103;28;20678;-86
2023/01/20 10:23:38;;;;;;;0.90;0.90;;;;;;;2.76;80.87;99551.69;4984111;28;21863;-87
2023/01/20 10:26:09;;;;;;;1.00;1.00;;;;;;;2.75;81.16;99551.84;5008502;28;20233;-85
2023/01/20 10:28:58;;;;;;;0.90;0.90;;;;;;;2.78;80.86;99554.13;5032545;28;20057;-85
2023/01/20 10:31:30;;;;;;;0.90;0.90;;;;;;;2.80;80.67;99550.28;5017290;28;20046;-86
2023/01/20 10:34:07;;;;;;;1.00;1.00;;;;;;;2.80;80.95;99560.13;4983578;28;20075;-85
2023/01/20 10:36:35;;;;;;;0.90;0.90;;;;;;;2.82;80.69;99569.59;5031680;28;20468;-86
2023/01/20 10:39:27;;;;;;;0.90;0.90;;;;;;;2.86;80.42;99564.75;5022073;28;20056;-86
2023/01/20 10:42:19;;;;;;;0.80;0.80;;;;;;;2.91;80.40;99566.84;5022529;28;20053;-85
2023/01/20 10:44:49;;;;;;;0.90;0.90;;;;;;;2.93;80.03;99560.31;5032037;28;20087;-87
2023/01/20 10:47:23;;;;;;;0.80;0.80;;;;;;;2.96;79.97;99562.66;5014290;28;20147;-85
2023/01/20 10:50:21;;;;;;;0.90;0.90;;;;;;;3.01;79.76;99570.09;5043941;28;20067;-85
2023/01/20 10:53:08;;;;;;;0.90;0.90;;;;;;;3.02;79.45;99555.75;5104437;27;20063;-86
2023/01/20 10:56:01;;;;;;;0.80;0.80;;;;;;;3.00;79.23;99549.78;5106503;27;20044;-85
2023/01/20 10:58:35;;;;;;;0.80;0.80;;;;;;;2.92;79.25;99556.00;5073089;28;20055;-86
2023/01/20 11:01:05;;;;;;;0.90;0.90;;;;;;;2.81;79.45;99551.97;5090449;28;20058;-86
2023/01/20 11:03:39;;;;;;;0.88;0.88;;;;;;;2.86;79.77;99564.75;5110388;28;20051;-84
2023/01/20 11:06:16;;;;;;;0.80;0.80;;;;;;;2.79;79.70;99577.13;5100133;28;20075;-84
2023/01/20 11:08:43;;;;;;;0.77;0.77;;;;;;;2.73;80.13;99575.19;5099590;28;20049;-84
2023/01/20 11:11:14;;;;;;;0.80;0.80;;;;;;;2.67;79.97;99576.72;5079355;27;20047;-83
2023/01/20 11:13:41;;;;;;;0.90;0.90;;;;;;;2.65;80.29;99569.91;5096710;28;20088;-86
2023/01/20 11:16:23;;;;;;;0.90;0.90;;;;;;;2.65;80.61;99577.91;5110691;28;20065;-87
2023/01/20 11:18:59;;;;;;;0.90;0.90;;;;;;;2.65;80.94;99585.91;5096392;28;20047;-85
2023/01/20 11:21:35;;;;;;;0.90;0.90;;;;;;;2.68;80.47;99567.72;5113476;27;20394;-83
2023/01/20 11:24:35;;;;;;;0.80;0.80;;;;;;;2.70;80.49;99562.22;5115153;27;20040;-85
2023/01/20 11:27:04;;;;;;;0.90;0.90;;;;;;;2.73;80.37;99572.50;5044105;27;20056;-83
2023/01/20 11:29:38;;;;;;;0.90;0.90;;;;;;;2.75;80.34;99574.00;5099122;27;20492;-84
2023/01/20 11:32:26;;;;;;;0.90;0.90;;;;;;;2.79;80.36;99575.28;5117895;27;20044;-85
2023/01/20 11:34:54;;;;;;;0.90;0.90;;;;;;;2.80;80.14;99557.47;5076172;28;20138;-84
2023/01/20 11:37:26;;;;;;;0.80;0.80;;;;;;;2.83;80.10;99578.41;5111522;28;20043;-84
2023/01/20 11:40:00;;;;;;;0.90;0.90;;;;;;;2.88;79.70;99567.22;5107970;28;20096;-84
2023/01/20 11:42:42;;;;;;;0.90;0.90;;;;;;;2.87;79.65;99566.41;5112076;27;20051;-85
2023/01/20 11:45:34;;;;;;;0.90;0.90;;;;;;;2.93;79.59;99573.66;5108252;28;20605;-86
2023/01/20 11:48:22;;;;;;;0.80;0.80;;;;;;;2.93;79.46;99571.00;5087281;28;20155;-84
2023/01/20 11:50:53;;;;;;;0.90;0.90;;;;;;;2.88;79.63;99573.38;5109254;27;20047;-84
2023/01/20 11:53:30;;;;;;;0.80;0.80;;;;;;;2.90;79.57;99576.69;5109758;28;20063;-83
2023/01/20 11:56:01;;;;;;;0.90;0.90;;;;;;;2.93;79.57;99587.00;5088348;27;20429;-84
2023/01/20 11:58:32;;;;;;;0.80;0.80;;;;;;;2.89;79.42;99588.38;5095160;27;20055;-86
2023/01/20 12:01:06;;;;;;;0.82;0.82;;;;;;;2.88;79.32;99593.88;5113556;27;20050;-85
2023/01/20 12:03:51;;;;;;;0.90;0.90;;;;;;;2.84;79.38;99614.75;5100265;28;20524;-85
2023/01/20 12:06:27;;;;;;;0.90;0.90;;;;;;;2.78;79.44;99592.28;5107809;27;20138;-85
2023/01/20 12:09:04;;;;;;;0.80;0.80;;;;;;;2.76;79.25;99622.78;5111331;27;20043;-83
2023/01/20 12:11:41;;;;;;;0.82;0.82;;;;;;;2.74;79.63;99606.16;5112805;27;20135;-84